Dikili, Turkey

3:33 PM EEST on September 05, 2015 (GMT +0300)
Odysseas Elytis | | Change Station
CLOSE
Current Station
Airport
Location: Mytilini,
Elevation: 16 ft
Nearby Weather Stations

Elev 16 ft 39.05 °N, 26.60 °E | Updated 13 minutes ago

Clear
Clear
95 °F
Feels Like 98 °F
N
4
Wind Variable Wind from Variable

Today
High -- | Low -- °F
--% Chance of Precip.
Yesterday
High -- | Low -- °F
Precip. -- in
6:44 AM 7:37 PM
Waning Gibbous, 49% visible
Pressure 29.92 in
Visibility -9999.0 miles
Clouds
Heat Index 98 °F
Dew Point 66 °F
Humidity 39%
Rainfall 0.00 in
Snow Depth Not available.
UV Not available.
Pollen Not available.
Air Quality Not available.
Flu Activity Not available.
METAR LGMT 051220Z VRB03KT CAVOK 35/19 Q1013
Pressure 29.92 in
Visibility -9999.0 miles
Clouds
Heat Index 98 °F
Dew Point 66 °F
Humidity 39%
Rainfall 0.00 in
Snow Depth Not available.
UV Not available.
Pollen Not available.
Air Quality Not available.
Flu Activity Not available.
METAR LGMT 051220Z VRB03KT CAVOK 35/19 Q1013

10-Day Weather Forecast

×

Almanac

Astronomy

Sep. 05, 2015 Rise Set
Actual Time
Civil Twilight
Nautical Twilight
Astronomical Twilight
Moon
Length of Visible Light
Length of Day
Tomorrow will be .
, % of the Moon is Illuminated

Today's Extremes

Country Highs Country Lows

Community

WunderPhotos

Upload Photos

1,852,454 photos uploaded!

WunderBlogs® & News

Nearby

Air Quality

  Air Quality AQ Index Pollutant
Not available.

Snow Depth

Station Depth Elevation

Earthquake Activity

City Distance Mag. Time & Date
Minimum magnitude displayed is 2.5.

Coastal Water Temperatures

Place Temperature

Stations

Nearby Weather Stations

Station Location Temp. Windchill Dew Point Humidity Wind Precip. Elev Updated Type